Time;durP1;ratioP1;P1;durP2;ratioP2;P2;SDS_P1;SDS_P2;PMS_P1;PMS_P2;Temp;Humidity;BMP_temperature;BMP_pressure;BME280_temperature;BME280_humidity;BME280_pressure;Samples;Min_cycle;Max_cycle;Signal;HPM_P1;HPM_P2
2023/06/18 00:02:01;;;;;;;6.95;6.15;;;;;;;;;;4988867;28;20101;-66
2023/06/18 00:04:27;;;;;;;9.45;5.68;;;;;;;;;;4989739;28;20053;-66
2023/06/18 00:06:53;;;;;;;7.75;5.32;;;;;;;;;;4991661;28;20026;-66
2023/06/18 00:09:22;;;;;;;7.63;6.05;;;;;;;;;;4994219;28;20034;-66
2023/06/18 00:11:49;;;;;;;8.30;6.20;;;;;;;;;;4990399;28;20057;-66
2023/06/18 00:14:14;;;;;;;7.65;6.30;;;;;;;;;;4989891;28;20038;-66
2023/06/18 00:16:40;;;;;;;7.57;5.93;;;;;;;;;;4990662;28;20121;-66
2023/06/18 00:19:05;;;;;;;7.65;6.18;;;;;;;;;;4989926;28;20022;-66
2023/06/18 00:21:31;;;;;;;7.50;6.00;;;;;;;;;;4990260;28;20516;-66
2023/06/18 00:23:56;;;;;;;7.20;5.90;;;;;;;;;;4988791;28;20023;-66
2023/06/18 00:26:23;;;;;;;7.75;6.20;;;;;;;;;;4990361;28;20031;-66
2023/06/18 00:28:48;;;;;;;7.78;6.18;;;;;;;;;;4986705;28;20030;-66
2023/06/18 00:31:14;;;;;;;7.00;5.32;;;;;;;;;;4990067;28;20030;-66
2023/06/18 00:33:39;;;;;;;6.45;5.53;;;;;;;;;;4991648;28;20094;-66
2023/06/18 00:36:06;;;;;;;6.88;5.15;;;;;;;;;;4992055;28;20805;-66
2023/06/18 00:38:35;;;;;;;7.28;5.53;;;;;;;;;;4993421;28;20422;-66
2023/06/18 00:41:01;;;;;;;6.80;5.50;;;;;;;;;;4991303;28;20073;-66
2023/06/18 00:43:29;;;;;;;7.85;6.25;;;;;;;;;;4993838;28;20388;-67
2023/06/18 00:45:59;;;;;;;8.85;5.60;;;;;;;;;;4993191;28;20030;-67
2023/06/18 00:48:25;;;;;;;7.40;5.63;;;;;;;;;;4984101;28;20030;-67
2023/06/18 00:50:53;;;;;;;6.63;5.15;;;;;;;;;;4989324;28;20026;-66
2023/06/18 00:53:20;;;;;;;7.38;5.85;;;;;;;;;;4991007;28;20033;-67
2023/06/18 00:55:46;;;;;;;5.68;5.05;;;;;;;;;;4991345;28;20049;-67
2023/06/18 00:58:13;;;;;;;8.13;6.25;;;;;;;;;;4989623;28;20026;-67
2023/06/18 01:00:40;;;;;;;8.18;5.75;;;;;;;;;;4990839;28;20038;-67
2023/06/18 01:03:15;;;;;;;7.05;5.60;;;;;;;;;;4988397;28;20384;-68
2023/06/18 01:05:43;;;;;;;7.38;5.72;;;;;;;;;;4987889;28;20026;-67
2023/06/18 01:08:12;;;;;;;7.93;6.00;;;;;;;;;;4986551;28;20542;-67
2023/06/18 01:10:40;;;;;;;7.80;5.25;;;;;;;;;;4990502;28;20077;-67
2023/06/18 01:13:08;;;;;;;7.10;5.40;;;;;;;;;;4988159;28;20532;-67
2023/06/18 01:15:33;;;;;;;6.90;5.47;;;;;;;;;;4993613;28;20047;-67
2023/06/18 01:18:00;;;;;;;6.57;5.43;;;;;;;;;;4990029;28;20478;-67
2023/06/18 01:20:27;;;;;;;8.15;6.57;;;;;;;;;;4983780;28;20022;-67
2023/06/18 01:23:03;;;;;;;7.57;5.25;;;;;;;;;;4990346;28;20502;-67
2023/06/18 01:25:36;;;;;;;6.75;5.15;;;;;;;;;;4988560;28;20036;-67
2023/06/18 01:28:07;;;;;;;7.20;6.05;;;;;;;;;;4988698;28;20041;-67
2023/06/18 01:30:36;;;;;;;8.35;6.15;;;;;;;;;;4988929;28;20529;-67
2023/06/18 01:33:01;;;;;;;6.95;5.95;;;;;;;;;;4989716;28;20466;-67
2023/06/18 01:35:27;;;;;;;8.48;5.60;;;;;;;;;;4992935;28;20027;-67
2023/06/18 01:38:01;;;;;;;8.98;6.35;;;;;;;;;;4991116;28;20026;-67
2023/06/18 01:40:27;;;;;;;10.00;6.30;;;;;;;;;;4984925;28;20038;-66
2023/06/18 01:42:59;;;;;;;7.57;6.38;;;;;;;;;;4990489;28;20026;-66
2023/06/18 01:45:31;;;;;;;7.65;5.60;;;;;;;;;;4986019;28;20408;-66
2023/06/18 01:48:02;;;;;;;9.80;6.47;;;;;;;;;;4983865;28;20094;-66
2023/06/18 01:50:28;;;;;;;8.75;6.15;;;;;;;;;;4991368;28;20509;-67
2023/06/18 01:52:54;;;;;;;7.47;5.38;;;;;;;;;;4991235;28;20606;-67
2023/06/18 01:55:21;;;;;;;6.43;5.43;;;;;;;;;;4987115;28;20049;-67
2023/06/18 01:57:47;;;;;;;7.43;6.45;;;;;;;;;;4990643;28;20128;-67
2023/06/18 02:00:13;;;;;;;8.35;6.40;;;;;;;;;;4992478;28;20619;-66
2023/06/18 02:02:39;;;;;;;7.68;6.15;;;;;;;;;;4987694;28;20057;-67
2023/06/18 02:05:04;;;;;;;7.40;5.97;;;;;;;;;;4990318;28;20048;-67
2023/06/18 02:07:30;;;;;;;6.95;5.95;;;;;;;;;;4983462;28;20065;-67
2023/06/18 02:09:55;;;;;;;7.78;6.28;;;;;;;;;;4990377;28;20015;-69
2023/06/18 02:12:20;;;;;;;7.15;5.95;;;;;;;;;;4992689;28;20454;-67
2023/06/18 02:14:46;;;;;;;7.25;5.60;;;;;;;;;;4992084;28;20109;-67
2023/06/18 02:17:11;;;;;;;8.05;5.93;;;;;;;;;;4988560;28;20034;-66
2023/06/18 02:19:37;;;;;;;7.65;5.53;;;;;;;;;;4987742;28;20041;-67
2023/06/18 02:22:02;;;;;;;8.52;5.90;;;;;;;;;;4986663;28;20026;-67
2023/06/18 02:24:28;;;;;;;7.03;5.50;;;;;;;;;;4987200;28;20026;-67
2023/06/18 02:26:53;;;;;;;8.68;6.18;;;;;;;;;;4990042;28;20022;-67
2023/06/18 02:29:18;;;;;;;6.65;5.70;;;;;;;;;;4982257;28;20080;-67
2023/06/18 02:31:44;;;;;;;7.65;5.60;;;;;;;;;;4987561;28;20018;-67
2023/06/18 02:34:09;;;;;;;7.35;5.65;;;;;;;;;;4989192;28;20388;-66
2023/06/18 02:36:37;;;;;;;8.98;5.43;;;;;;;;;;4989823;28;20101;-67
2023/06/18 02:39:03;;;;;;;6.93;6.22;;;;;;;;;;4987194;28;20034;-66
2023/06/18 02:41:28;;;;;;;7.75;5.55;;;;;;;;;;4989266;28;20058;-67
2023/06/18 02:43:54;;;;;;;7.43;5.82;;;;;;;;;;4987994;28;20116;-66
2023/06/18 02:46:19;;;;;;;7.75;5.60;;;;;;;;;;4987931;28;20081;-67
2023/06/18 02:48:45;;;;;;;7.45;5.70;;;;;;;;;;4985164;28;20101;-67
2023/06/18 02:51:10;;;;;;;6.60;5.60;;;;;;;;;;4986130;28;20029;-67
2023/06/18 02:53:36;;;;;;;9.73;6.28;;;;;;;;;;4989744;28;20034;-67
2023/06/18 02:56:02;;;;;;;9.40;6.72;;;;;;;;;;4986376;28;20499;-69
2023/06/18 02:58:30;;;;;;;8.50;6.25;;;;;;;;;;4987889;28;20499;-67
2023/06/18 03:00:59;;;;;;;8.57;6.43;;;;;;;;;;4985322;28;20049;-67
2023/06/18 03:03:26;;;;;;;8.65;6.22;;;;;;;;;;4988360;28;20022;-67
2023/06/18 03:05:52;;;;;;;8.90;6.28;;;;;;;;;;4987329;28;20117;-67
2023/06/18 03:08:20;;;;;;;9.23;6.22;;;;;;;;;;4985452;28;20037;-69
2023/06/18 03:10:46;;;;;;;8.00;5.93;;;;;;;;;;4985752;28;20022;-69
2023/06/18 03:13:12;;;;;;;7.18;5.32;;;;;;;;;;4985149;28;20045;-68
2023/06/18 03:15:38;;;;;;;7.35;5.35;;;;;;;;;;4987749;28;20045;-69
2023/06/18 03:18:03;;;;;;;6.38;5.28;;;;;;;;;;4983972;28;20030;-66
2023/06/18 03:20:29;;;;;;;8.40;5.55;;;;;;;;;;4986819;28;20088;-67
2023/06/18 03:22:55;;;;;;;6.82;5.50;;;;;;;;;;4986755;28;20046;-67
2023/06/18 03:25:21;;;;;;;6.20;5.10;;;;;;;;;;4989035;28;20084;-68
2023/06/18 03:27:47;;;;;;;6.85;5.20;;;;;;;;;;4989052;28;20044;-68
2023/06/18 03:30:13;;;;;;;7.07;5.60;;;;;;;;;;4984478;28;20026;-68
2023/06/18 03:32:39;;;;;;;7.13;5.13;;;;;;;;;;4986328;28;20701;-68
2023/06/18 03:35:05;;;;;;;7.13;4.75;;;;;;;;;;4987284;28;20026;-68
2023/06/18 03:37:30;;;;;;;7.10;5.65;;;;;;;;;;4986313;28;20502;-68
2023/06/18 03:39:57;;;;;;;8.05;5.65;;;;;;;;;;4986659;28;20054;-68
2023/06/18 03:42:23;;;;;;;8.98;5.85;;;;;;;;;;4982312;28;20045;-68
2023/06/18 03:44:48;;;;;;;6.88;5.65;;;;;;;;;;4981928;28;20041;-68
2023/06/18 03:47:14;;;;;;;5.88;5.25;;;;;;;;;;4984437;28;20030;-68
2023/06/18 03:49:39;;;;;;;7.75;5.40;;;;;;;;;;4983407;28;20081;-68
2023/06/18 03:52:05;;;;;;;6.40;5.15;;;;;;;;;;4987774;28;20022;-68
2023/06/18 03:54:31;;;;;;;7.53;5.40;;;;;;;;;;4986090;28;20057;-67
2023/06/18 03:56:57;;;;;;;7.93;5.40;;;;;;;;;;4982009;28;20035;-68
2023/06/18 03:59:23;;;;;;;6.82;5.22;;;;;;;;;;4989021;28;20085;-67
2023/06/18 04:01:49;;;;;;;9.27;6.10;;;;;;;;;;4987967;28;20090;-68
2023/06/18 04:04:15;;;;;;;7.75;6.18;;;;;;;;;;4988058;28;20833;-68
2023/06/18 04:06:40;;;;;;;8.95;6.00;;;;;;;;;;4984195;28;20030;-68
2023/06/18 04:09:05;;;;;;;7.90;6.15;;;;;;;;;;4992165;28;20025;-67
2023/06/18 04:11:31;;;;;;;8.73;6.20;;;;;;;;;;4986932;28;20042;-67
2023/06/18 04:13:56;;;;;;;9.32;5.50;;;;;;;;;;4985807;28;20026;-67
2023/06/18 04:16:21;;;;;;;7.93;5.82;;;;;;;;;;4985285;28;20027;-68
2023/06/18 04:18:47;;;;;;;7.43;5.50;;;;;;;;;;4983560;28;20052;-67
2023/06/18 04:21:12;;;;;;;7.50;5.90;;;;;;;;;;4990385;28;20033;-67
2023/06/18 04:23:41;;;;;;;7.32;5.88;;;;;;;;;;4987874;28;20387;-68
2023/06/18 04:26:07;;;;;;;8.32;6.63;;;;;;;;;;4987801;28;20072;-68
2023/06/18 04:28:32;;;;;;;9.02;6.28;;;;;;;;;;4985667;28;20058;-68
2023/06/18 04:30:57;;;;;;;10.93;6.72;;;;;;;;;;4987728;28;20125;-68
2023/06/18 04:33:23;;;;;;;9.90;6.35;;;;;;;;;;4986219;28;20015;-68
2023/06/18 04:35:48;;;;;;;7.75;5.90;;;;;;;;;;4988016;28;20414;-68
2023/06/18 04:38:14;;;;;;;9.05;5.70;;;;;;;;;;4986468;28;20085;-67
2023/06/18 04:40:39;;;;;;;7.68;5.85;;;;;;;;;;4983686;28;20029;-67
2023/06/18 04:43:04;;;;;;;7.68;5.97;;;;;;;;;;4989712;28;20022;-67
2023/06/18 04:45:30;;;;;;;8.02;5.90;;;;;;;;;;4985936;28;20040;-68
2023/06/18 04:47:55;;;;;;;8.35;6.43;;;;;;;;;;4985515;28;20054;-67
2023/06/18 04:50:22;;;;;;;8.52;6.38;;;;;;;;;;4988584;28;20530;-67
2023/06/18 04:52:48;;;;;;;8.90;6.55;;;;;;;;;;4993295;28;20026;-66
2023/06/18 04:55:13;;;;;;;9.10;6.18;;;;;;;;;;4990414;28;20092;-66
2023/06/18 04:57:40;;;;;;;8.77;5.97;;;;;;;;;;4989485;28;20046;-67
2023/06/18 05:00:06;;;;;;;8.23;6.10;;;;;;;;;;4993585;28;20452;-67
2023/06/18 05:02:32;;;;;;;9.00;6.60;;;;;;;;;;4986893;28;20530;-67
2023/06/18 05:04:57;;;;;;;8.13;6.28;;;;;;;;;;4992748;28;20030;-67
2023/06/18 05:07:24;;;;;;;8.75;6.43;;;;;;;;;;4990135;28;20022;-67
2023/06/18 05:09:49;;;;;;;8.68;5.88;;;;;;;;;;4989341;28;20072;-66
2023/06/18 05:12:15;;;;;;;7.82;6.47;;;;;;;;;;4990602;28;20422;-68
2023/06/18 05:14:40;;;;;;;10.57;7.55;;;;;;;;;;4986340;28;20038;-67
2023/06/18 05:17:06;;;;;;;6.80;5.65;;;;;;;;;;4989030;28;20510;-67
2023/06/18 05:19:31;;;;;;;8.45;6.07;;;;;;;;;;4986555;28;20030;-67
2023/06/18 05:21:57;;;;;;;8.95;6.63;;;;;;;;;;4990863;28;20112;-67
2023/06/18 05:24:23;;;;;;;9.88;6.57;;;;;;;;;;4988623;28;20030;-67
2023/06/18 05:26:48;;;;;;;7.63;6.18;;;;;;;;;;4986392;28;20034;-67
2023/06/18 05:29:16;;;;;;;10.32;5.53;;;;;;;;;;4986382;28;20108;-67
2023/06/18 05:31:41;;;;;;;9.02;7.10;;;;;;;;;;4986077;28;20088;-67
2023/06/18 05:34:06;;;;;;;9.45;6.57;;;;;;;;;;4988657;28;20400;-67
2023/06/18 05:36:32;;;;;;;8.45;6.30;;;;;;;;;;4987170;28;20026;-67
2023/06/18 05:39:00;;;;;;;9.57;6.78;;;;;;;;;;4990829;28;20026;-66
2023/06/18 05:41:26;;;;;;;10.00;6.78;;;;;;;;;;4989804;28;20447;-66
2023/06/18 05:43:52;;;;;;;8.48;6.50;;;;;;;;;;4987389;28;20040;-67
2023/06/18 05:46:18;;;;;;;8.57;6.53;;;;;;;;;;4983689;28;20030;-67
2023/06/18 05:48:43;;;;;;;9.50;6.95;;;;;;;;;;4983940;28;20037;-68
2023/06/18 05:51:09;;;;;;;9.73;7.65;;;;;;;;;;4984360;28;20017;-67
2023/06/18 05:53:34;;;;;;;9.35;6.38;;;;;;;;;;4986011;28;20053;-67
2023/06/18 05:55:59;;;;;;;7.25;5.20;;;;;;;;;;4988822;28;20022;-68
2023/06/18 05:58:25;;;;;;;10.18;7.20;;;;;;;;;;4984518;28;20022;-68
2023/06/18 06:00:51;;;;;;;9.20;6.55;;;;;;;;;;4985455;28;20034;-67
2023/06/18 06:03:17;;;;;;;9.18;6.63;;;;;;;;;;4987049;28;20206;-67
2023/06/18 06:05:42;;;;;;;8.32;6.40;;;;;;;;;;4987725;28;20711;-66
2023/06/18 06:08:07;;;;;;;9.68;6.65;;;;;;;;;;4990670;28;20026;-67
2023/06/18 06:10:33;;;;;;;7.30;5.72;;;;;;;;;;4985504;28;20033;-67
2023/06/18 06:12:59;;;;;;;9.07;6.90;;;;;;;;;;4988274;28;20030;-67
2023/06/18 06:15:24;;;;;;;7.43;6.50;;;;;;;;;;4986339;28;20026;-67
2023/06/18 06:17:49;;;;;;;8.27;6.57;;;;;;;;;;4984672;28;20041;-67
2023/06/18 06:20:15;;;;;;;7.93;6.45;;;;;;;;;;4988238;28;20506;-67
2023/06/18 06:22:40;;;;;;;7.85;6.72;;;;;;;;;;4984657;28;20026;-68
2023/06/18 06:25:06;;;;;;;8.98;7.03;;;;;;;;;;4985673;28;20053;-67
2023/06/18 06:27:33;;;;;;;7.10;6.20;;;;;;;;;;4989744;28;20058;-67
2023/06/18 06:29:59;;;;;;;7.97;6.30;;;;;;;;;;4982344;28;20521;-67
2023/06/18 06:32:24;;;;;;;7.05;5.85;;;;;;;;;;4986082;28;20034;-67
2023/06/18 06:34:49;;;;;;;9.55;6.60;;;;;;;;;;4988699;28;20038;-67
2023/06/18 06:37:15;;;;;;;8.55;6.82;;;;;;;;;;4984162;28;20047;-67
2023/06/18 06:39:41;;;;;;;7.90;6.53;;;;;;;;;;4987505;28;20026;-68
2023/06/18 06:42:06;;;;;;;7.88;6.68;;;;;;;;;;4982340;28;20030;-67
2023/06/18 06:44:31;;;;;;;8.68;6.03;;;;;;;;;;4987158;28;20080;-67
2023/06/18 06:46:57;;;;;;;5.28;4.20;;;;;;;;;;4984219;28;20034;-67
2023/06/18 06:49:22;;;;;;;7.20;6.25;;;;;;;;;;4987420;28;20547;-67
2023/06/18 06:51:48;;;;;;;7.53;6.07;;;;;;;;;;4985076;28;20034;-67
2023/06/18 06:54:13;;;;;;;5.90;4.40;;;;;;;;;;4986219;28;20032;-67
2023/06/18 06:56:39;;;;;;;8.65;6.50;;;;;;;;;;4987118;28;20024;-67
2023/06/18 06:59:04;;;;;;;5.57;4.20;;;;;;;;;;4984064;28;20038;-67
2023/06/18 07:01:30;;;;;;;8.75;6.20;;;;;;;;;;4986145;28;20538;-68
2023/06/18 07:03:55;;;;;;;6.95;5.47;;;;;;;;;;4985367;28;20030;-66
2023/06/18 07:06:20;;;;;;;9.00;6.40;;;;;;;;;;4986109;28;20049;-68
2023/06/18 07:08:46;;;;;;;8.02;6.60;;;;;;;;;;4986097;28;20026;-67
2023/06/18 07:11:11;;;;;;;8.10;5.95;;;;;;;;;;4985960;28;20105;-67
2023/06/18 07:13:38;;;;;;;8.38;6.00;;;;;;;;;;4982923;28;20034;-68
2023/06/18 07:16:04;;;;;;;6.85;4.70;;;;;;;;;;4984879;28;20629;-68
2023/06/18 07:18:29;;;;;;;7.35;5.28;;;;;;;;;;4984023;28;20033;-68
2023/06/18 07:20:55;;;;;;;8.43;6.75;;;;;;;;;;4985736;28;20546;-67
2023/06/18 07:23:20;;;;;;;10.10;6.32;;;;;;;;;;4985103;28;20027;-67
2023/06/18 07:25:45;;;;;;;7.97;5.82;;;;;;;;;;4984951;28;20038;-68
2023/06/18 07:28:11;;;;;;;8.07;6.28;;;;;;;;;;4985884;28;20034;-67
2023/06/18 07:30:36;;;;;;;7.80;6.28;;;;;;;;;;4984955;28;20041;-68
2023/06/18 07:33:02;;;;;;;7.82;5.85;;;;;;;;;;4984287;28;20030;-68
2023/06/18 07:35:27;;;;;;;9.75;6.28;;;;;;;;;;4981799;28;20037;-67
2023/06/18 07:37:53;;;;;;;7.90;6.13;;;;;;;;;;4984372;28;20034;-68
2023/06/18 07:40:18;;;;;;;8.13;6.72;;;;;;;;;;4985370;28;20022;-68
2023/06/18 07:42:43;;;;;;;8.88;7.13;;;;;;;;;;4983612;28;20029;-67
2023/06/18 07:45:10;;;;;;;8.18;6.70;;;;;;;;;;4984893;28;20022;-67
2023/06/18 07:47:35;;;;;;;10.07;7.10;;;;;;;;;;4981909;28;20023;-67
2023/06/18 07:50:01;;;;;;;8.13;6.45;;;;;;;;;;4983532;28;20900;-67
2023/06/18 07:52:27;;;;;;;7.13;5.30;;;;;;;;;;4984579;28;20031;-67
2023/06/18 07:54:53;;;;;;;8.73;6.15;;;;;;;;;;4978041;28;20022;-68
2023/06/18 07:57:18;;;;;;;7.57;6.63;;;;;;;;;;4989554;28;20578;-68
2023/06/18 07:59:44;;;;;;;7.30;5.38;;;;;;;;;;4980464;28;20038;-67
2023/06/18 08:02:09;;;;;;;9.25;6.60;;;;;;;;;;4988121;28;20030;-67
2023/06/18 08:04:35;;;;;;;6.50;3.83;;;;;;;;;;4986286;28;20471;-67
2023/06/18 08:07:00;;;;;;;12.02;6.72;;;;;;;;;;4988302;28;20041;-67
2023/06/18 08:09:26;;;;;;;9.98;6.97;;;;;;;;;;4983410;28;20383;-67
2023/06/18 08:11:51;;;;;;;7.78;6.22;;;;;;;;;;4985906;28;20505;-67
2023/06/18 08:14:17;;;;;;;8.55;6.18;;;;;;;;;;4984980;28;20033;-67
2023/06/18 08:16:42;;;;;;;5.00;4.07;;;;;;;;;;4985676;28;20471;-67
2023/06/18 08:19:08;;;;;;;6.95;5.15;;;;;;;;;;4984892;28;20105;-65
2023/06/18 08:21:33;;;;;;;9.73;7.18;;;;;;;;;;4983762;28;20023;-65
2023/06/18 08:23:58;;;;;;;10.07;6.95;;;;;;;;;;4982208;28;20081;-65
2023/06/18 08:26:24;;;;;;;7.43;6.10;;;;;;;;;;4987692;28;20022;-65
2023/06/18 08:28:50;;;;;;;6.63;5.10;;;;;;;;;;4989062;28;20065;-66
2023/06/18 08:31:16;;;;;;;7.40;6.70;;;;;;;;;;4992624;28;20459;-66
2023/06/18 08:33:42;;;;;;;7.13;5.57;;;;;;;;;;4990825;28;20026;-65
2023/06/18 08:36:07;;;;;;;9.40;6.90;;;;;;;;;;4988485;28;20018;-66
2023/06/18 08:38:32;;;;;;;8.23;5.85;;;;;;;;;;4987635;28;20053;-66
2023/06/18 08:41:02;;;;;;;8.40;6.65;;;;;;;;;;4987240;28;20026;-66
2023/06/18 08:43:32;;;;;;;7.13;5.88;;;;;;;;;;4983704;28;20027;-65
2023/06/18 08:46:06;;;;;;;8.70;6.23;;;;;;;;;;4984196;28;20043;-65
2023/06/18 08:48:38;;;;;;;4.78;4.00;;;;;;;;;;4985318;28;20018;-65
2023/06/18 08:51:04;;;;;;;10.18;6.57;;;;;;;;;;4986397;28;20030;-65
2023/06/18 08:53:50;;;;;;;5.95;4.82;;;;;;;;;;4982354;28;20053;-65
2023/06/18 08:56:20;;;;;;;9.98;6.40;;;;;;;;;;4982639;28;20028;-65
2023/06/18 08:58:50;;;;;;;6.18;4.70;;;;;;;;;;4986556;28;20030;-65
2023/06/18 09:01:16;;;;;;;8.00;6.45;;;;;;;;;;4985181;28;20531;-65
2023/06/18 09:03:43;;;;;;;9.23;6.65;;;;;;;;;;4985182;28;20034;-65
2023/06/18 09:06:08;;;;;;;8.13;5.40;;;;;;;;;;4983911;28;20036;-66
2023/06/18 09:08:36;;;;;;;8.52;6.40;;;;;;;;;;4981651;28;20026;-65
2023/06/18 09:11:02;;;;;;;5.85;4.60;;;;;;;;;;4983591;28;20033;-66
2023/06/18 09:13:27;;;;;;;6.88;5.78;;;;;;;;;;4982927;28;20034;-66
2023/06/18 09:15:53;;;;;;;6.55;5.65;;;;;;;;;;4978779;28;20026;-66
2023/06/18 09:18:21;;;;;;;6.15;5.55;;;;;;;;;;4985018;28;20038;-66
2023/06/18 09:20:47;;;;;;;7.68;5.90;;;;;;;;;;4986458;28;20026;-66
2023/06/18 09:23:13;;;;;;;7.75;6.10;;;;;;;;;;4982466;28;20038;-65
2023/06/18 09:25:38;;;;;;;6.38;5.43;;;;;;;;;;4990405;28;20738;-66
2023/06/18 09:28:04;;;;;;;7.53;6.18;;;;;;;;;;4988108;28;20034;-65
2023/06/18 09:30:29;;;;;;;7.00;5.97;;;;;;;;;;4991869;28;20085;-67
2023/06/18 09:32:59;;;;;;;7.70;5.70;;;;;;;;;;4990640;28;20032;-67
2023/06/18 09:35:26;;;;;;;6.55;5.32;;;;;;;;;;4992944;28;20022;-66
2023/06/18 09:37:52;;;;;;;8.60;6.43;;;;;;;;;;4990711;28;20484;-66
2023/06/18 09:40:19;;;;;;;8.00;6.15;;;;;;;;;;4993525;28;20026;-66
2023/06/18 09:42:45;;;;;;;6.75;6.05;;;;;;;;;;4990237;28;20053;-66
2023/06/18 09:45:13;;;;;;;7.13;6.05;;;;;;;;;;4992579;28;20045;-66
2023/06/18 09:47:41;;;;;;;6.75;5.13;;;;;;;;;;4986084;28;20038;-65
2023/06/18 09:50:10;;;;;;;8.15;6.32;;;;;;;;;;4990260;28;20040;-66
2023/06/18 09:52:46;;;;;;;8.85;6.43;;;;;;;;;;4989849;28;20084;-70
2023/06/18 09:55:33;;;;;;;7.30;5.93;;;;;;;;;;4986404;28;20041;-66
2023/06/18 09:57:59;;;;;;;7.25;5.75;;;;;;;;;;4989425;28;20037;-66
2023/06/18 10:00:26;;;;;;;6.43;5.82;;;;;;;;;;4983191;28;20028;-65
2023/06/18 10:02:52;;;;;;;7.65;6.13;;;;;;;;;;4992899;28;20046;-65
2023/06/18 10:05:17;;;;;;;6.95;5.95;;;;;;;;;;4989190;28;20088;-65
2023/06/18 10:07:44;;;;;;;7.53;5.75;;;;;;;;;;4986846;28;20114;-67
2023/06/18 10:10:14;;;;;;;6.55;5.85;;;;;;;;;;4985757;28;20120;-66
2023/06/18 10:12:44;;;;;;;8.40;5.90;;;;;;;;;;4989467;28;20521;-66
2023/06/18 10:15:13;;;;;;;5.87;5.17;;;;;;;;;;4985823;28;20034;-66
2023/06/18 10:17:43;;;;;;;6.30;5.13;;;;;;;;;;4988529;28;20018;-66
2023/06/18 10:20:12;;;;;;;7.90;6.28;;;;;;;;;;4987601;28;20349;-66
2023/06/18 10:22:45;;;;;;;6.28;5.68;;;;;;;;;;4986558;28;20595;-65
2023/06/18 10:25:11;;;;;;;6.80;5.32;;;;;;;;;;4985943;28;20517;-65
2023/06/18 10:27:37;;;;;;;7.47;5.97;;;;;;;;;;4992087;28;20026;-66
2023/06/18 10:30:03;;;;;;;6.55;5.30;;;;;;;;;;4989620;28;20051;-65
2023/06/18 10:32:31;;;;;;;6.03;4.90;;;;;;;;;;4988731;28;20054;-65
2023/06/18 10:34:58;;;;;;;6.80;5.13;;;;;;;;;;4989423;28;20029;-65
2023/06/18 10:37:25;;;;;;;6.15;5.18;;;;;;;;;;4987307;28;20021;-65
2023/06/18 10:39:51;;;;;;;5.78;4.85;;;;;;;;;;4990200;28;20026;-65
2023/06/18 10:42:18;;;;;;;5.55;5.05;;;;;;;;;;4989249;28;20034;-65
2023/06/18 10:44:47;;;;;;;7.15;5.28;;;;;;;;;;4987384;28;20454;-66
2023/06/18 10:47:22;;;;;;;6.10;5.35;;;;;;;;;;4984499;28;20169;-66
2023/06/18 10:50:02;;;;;;;5.55;4.68;;;;;;;;;;4992861;28;20018;-65
2023/06/18 10:52:49;;;;;;;6.47;4.63;;;;;;;;;;4986411;28;20033;-65
2023/06/18 10:55:20;;;;;;;5.60;4.55;;;;;;;;;;4981632;28;20064;-66
2023/06/18 10:57:47;;;;;;;6.18;4.70;;;;;;;;;;4991704;28;20030;-66
2023/06/18 11:00:29;;;;;;;6.38;5.15;;;;;;;;;;4991712;28;20600;-66
2023/06/18 11:03:05;;;;;;;5.82;4.97;;;;;;;;;;4989690;28;20380;-66
2023/06/18 11:05:34;;;;;;;6.35;4.70;;;;;;;;;;4985986;28;20022;-66
2023/06/18 11:08:05;;;;;;;6.15;5.20;;;;;;;;;;4993103;28;20110;-66
2023/06/18 11:10:36;;;;;;;5.80;4.78;;;;;;;;;;4988722;28;20634;-67
2023/06/18 11:13:09;;;;;;;5.30;4.80;;;;;;;;;;4986417;28;20049;-66
2023/06/18 11:15:35;;;;;;;6.28;4.78;;;;;;;;;;4985596;28;20046;-66
2023/06/18 11:18:02;;;;;;;5.47;4.80;;;;;;;;;;4988443;28;20061;-65
2023/06/18 11:20:34;;;;;;;5.47;4.63;;;;;;;;;;4989484;28;20025;-65
2023/06/18 11:23:00;;;;;;;5.05;4.25;;;;;;;;;;4992583;28;20037;-68
2023/06/18 11:25:27;;;;;;;5.47;4.80;;;;;;;;;;4988758;28;20080;-66
2023/06/18 11:27:54;;;;;;;6.22;5.00;;;;;;;;;;4984888;28;20034;-67
2023/06/18 11:30:20;;;;;;;5.10;4.55;;;;;;;;;;4989092;28;20492;-67
2023/06/18 11:32:46;;;;;;;5.40;4.75;;;;;;;;;;4985500;28;20093;-67
2023/06/18 11:35:13;;;;;;;6.22;4.63;;;;;;;;;;4986346;28;20053;-66
2023/06/18 11:37:40;;;;;;;5.72;5.07;;;;;;;;;;4986930;28;20027;-68
2023/06/18 11:40:07;;;;;;;8.73;4.82;;;;;;;;;;4988536;28;20487;-68
2023/06/18 11:42:33;;;;;;;6.13;5.20;;;;;;;;;;4987661;28;20022;-67
2023/06/18 11:45:04;;;;;;;5.40;4.18;;;;;;;;;;4989094;28;20799;-67
2023/06/18 11:47:30;;;;;;;5.22;4.63;;;;;;;;;;4984466;28;20403;-68
2023/06/18 11:49:57;;;;;;;6.40;4.18;;;;;;;;;;4989605;28;20018;-67
2023/06/18 11:52:26;;;;;;;5.60;4.32;;;;;;;;;;4990427;28;20050;-68
2023/06/18 11:54:53;;;;;;;6.13;4.05;;;;;;;;;;4988519;28;20042;-67
2023/06/18 11:57:21;;;;;;;4.55;3.97;;;;;;;;;;4985110;28;20031;-67
2023/06/18 11:59:51;;;;;;;4.95;4.43;;;;;;;;;;4989374;28;20173;-67
2023/06/18 12:02:18;;;;;;;5.18;4.18;;;;;;;;;;4990476;28;20030;-66
2023/06/18 12:04:44;;;;;;;6.22;4.25;;;;;;;;;;4989065;28;20031;-68
2023/06/18 12:07:23;;;;;;;4.93;4.20;;;;;;;;;;4990444;28;20026;-66
2023/06/18 12:09:52;;;;;;;5.72;3.95;;;;;;;;;;4989852;28;20029;-66
2023/06/18 12:12:36;;;;;;;4.65;4.22;;;;;;;;;;4983135;28;20030;-66
2023/06/18 12:15:23;;;;;;;5.72;4.82;;;;;;;;;;4991326;28;20034;-66
2023/06/18 12:18:07;;;;;;;5.05;4.30;;;;;;;;;;4989404;28;20372;-66
2023/06/18 12:20:34;;;;;;;4.80;3.97;;;;;;;;;;4988600;28;20382;-66
2023/06/18 12:23:01;;;;;;;5.63;4.00;;;;;;;;;;4989854;28;20030;-66
2023/06/18 12:25:28;;;;;;;5.10;4.13;;;;;;;;;;4994561;28;20480;-66
2023/06/18 12:27:55;;;;;;;4.43;4.03;;;;;;;;;;4994158;28;20038;-66
2023/06/18 12:30:34;;;;;;;5.22;4.00;;;;;;;;;;4994604;28;20031;-66
2023/06/18 12:33:09;;;;;;;4.40;3.92;;;;;;;;;;4992997;28;20605;-67
2023/06/18 12:35:35;;;;;;;5.13;3.95;;;;;;;;;;4990567;28;20026;-67
2023/06/18 12:38:06;;;;;;;4.40;4.00;;;;;;;;;;4988551;28;20061;-67
2023/06/18 12:40:32;;;;;;;4.50;3.80;;;;;;;;;;4989357;28;20038;-67
2023/06/18 12:43:00;;;;;;;5.07;3.60;;;;;;;;;;4993871;28;20088;-68
2023/06/18 12:45:31;;;;;;;5.78;3.90;;;;;;;;;;4987492;28;20030;-67
2023/06/18 12:47:57;;;;;;;6.13;3.90;;;;;;;;;;4989686;28;20113;-67
2023/06/18 12:50:25;;;;;;;5.15;3.50;;;;;;;;;;4991107;28;20113;-67
2023/06/18 12:52:52;;;;;;;5.72;3.75;;;;;;;;;;4987859;28;20030;-68
2023/06/18 12:55:18;;;;;;;4.50;3.80;;;;;;;;;;4986032;28;20038;-68
2023/06/18 12:57:50;;;;;;;5.45;3.20;;;;;;;;;;4986569;28;20050;-68
2023/06/18 13:00:21;;;;;;;4.40;3.92;;;;;;;;;;4986222;28;20018;-67
2023/06/18 13:02:49;;;;;;;4.38;3.72;;;;;;;;;;4988707;28;20034;-67
2023/06/18 13:05:15;;;;;;;5.43;4.18;;;;;;;;;;4991286;28;20109;-68
2023/06/18 13:07:49;;;;;;;4.35;3.53;;;;;;;;;;4992728;28;20037;-67
2023/06/18 13:10:14;;;;;;;5.20;3.60;;;;;;;;;;4987199;28;20022;-68
2023/06/18 13:12:40;;;;;;;4.10;3.25;;;;;;;;;;4988147;28;20022;-67
2023/06/18 13:15:06;;;;;;;4.13;3.10;;;;;;;;;;4990844;28;20510;-67
2023/06/18 13:17:31;;;;;;;4.60;3.80;;;;;;;;;;4983961;28;20117;-66
2023/06/18 13:19:57;;;;;;;5.75;4.15;;;;;;;;;;4990871;28;20040;-67
2023/06/18 13:22:22;;;;;;;3.92;3.13;;;;;;;;;;4990325;28;20550;-66
2023/06/18 13:24:49;;;;;;;5.13;3.85;;;;;;;;;;4988433;28;20585;-66
2023/06/18 13:27:14;;;;;;;5.35;3.85;;;;;;;;;;4989600;28;20037;-67
2023/06/18 13:29:40;;;;;;;4.05;3.25;;;;;;;;;;4991981;28;20034;-66
2023/06/18 13:32:05;;;;;;;5.03;3.60;;;;;;;;;;4988814;28;20069;-66
2023/06/18 13:34:33;;;;;;;4.63;4.03;;;;;;;;;;4988040;28;20026;-66
2023/06/18 13:36:59;;;;;;;4.13;3.25;;;;;;;;;;4987717;28;20922;-67
2023/06/18 13:39:24;;;;;;;5.05;3.42;;;;;;;;;;4983601;28;20110;-67
2023/06/18 13:41:50;;;;;;;4.70;3.50;;;;;;;;;;4987983;28;20092;-66
2023/06/18 13:44:16;;;;;;;4.47;3.20;;;;;;;;;;4984794;28;20112;-67
2023/06/18 13:46:42;;;;;;;3.83;3.05;;;;;;;;;;4989749;28;20019;-66
2023/06/18 13:49:07;;;;;;;4.30;3.38;;;;;;;;;;4991132;28;20038;-67
2023/06/18 13:51:32;;;;;;;4.60;3.50;;;;;;;;;;4987257;28;20028;-67
2023/06/18 13:53:58;;;;;;;3.97;3.53;;;;;;;;;;4988793;28;20403;-67
2023/06/18 13:56:24;;;;;;;4.25;3.38;;;;;;;;;;4989645;28;20018;-67
2023/06/18 13:58:50;;;;;;;4.60;3.75;;;;;;;;;;4989835;28;20102;-67
2023/06/18 14:01:15;;;;;;;4.22;3.55;;;;;;;;;;4988149;28;20022;-68
2023/06/18 14:03:40;;;;;;;4.70;3.80;;;;;;;;;;4984195;28;20437;-67
2023/06/18 14:06:06;;;;;;;4.85;3.75;;;;;;;;;;4989122;28;20013;-67
2023/06/18 14:08:32;;;;;;;4.60;3.88;;;;;;;;;;4986474;28;20018;-68
2023/06/18 14:10:57;;;;;;;4.32;3.70;;;;;;;;;;4983367;28;20054;-68
2023/06/18 14:13:22;;;;;;;4.25;3.42;;;;;;;;;;4984485;28;20033;-68
2023/06/18 14:15:48;;;;;;;5.70;4.28;;;;;;;;;;4984220;28;20038;-67
2023/06/18 14:18:13;;;;;;;4.15;3.58;;;;;;;;;;4984580;28;20133;-68
2023/06/18 14:20:39;;;;;;;5.65;4.10;;;;;;;;;;4983614;28;20034;-69
2023/06/18 14:23:04;;;;;;;5.65;3.92;;;;;;;;;;4980968;28;20029;-68
2023/06/18 14:28:02;;;;;;;5.65;3.90;;;;;;;;;;5100018;27;20385;-67
2023/06/18 14:30:28;;;;;;;5.32;3.97;;;;;;;;;;5098154;28;20036;-65
2023/06/18 14:32:53;;;;;;;5.05;4.03;;;;;;;;;;5099310;28;20069;-66
2023/06/18 14:35:20;;;;;;;4.90;4.00;;;;;;;;;;5102329;28;20027;-66
2023/06/18 14:37:45;;;;;;;4.70;4.03;;;;;;;;;;5099468;28;20020;-65
2023/06/18 14:40:11;;;;;;;6.20;4.30;;;;;;;;;;5099604;28;20047;-65
2023/06/18 14:42:36;;;;;;;4.30;3.60;;;;;;;;;;5095384;28;20027;-65
2023/06/18 14:45:02;;;;;;;4.45;3.50;;;;;;;;;;5095696;28;20027;-66